sensor_id;sensor_type;location;lat;lon;timestamp;pressure;altitude;pressure_sealevel;temperature;humidity
74613;BME280;63119;51.788;8.824;2024-02-26T00:01:12;98547.97;;;5.99;74.38
74613;BME280;63119;51.788;8.824;2024-02-26T00:03:37;98552.63;;;5.95;74.26
74613;BME280;63119;51.788;8.824;2024-02-26T00:06:04;98548.53;;;5.91;74.72
74613;BME280;63119;51.788;8.824;2024-02-26T00:08:29;98548.03;;;5.86;74.71
74613;BME280;63119;51.788;8.824;2024-02-26T00:10:54;98538.75;;;5.81;75.21
74613;BME280;63119;51.788;8.824;2024-02-26T00:13:19;98530.38;;;5.76;75.21
74613;BME280;63119;51.788;8.824;2024-02-26T00:15:45;98536.69;;;5.73;75.76
74613;BME280;63119;51.788;8.824;2024-02-26T00:18:11;98541.59;;;5.78;75.42
74613;BME280;63119;51.788;8.824;2024-02-26T00:20:36;98546.34;;;5.85;75.13
74613;BME280;63119;51.788;8.824;2024-02-26T00:23:01;98540.03;;;5.88;74.93
74613;BME280;63119;51.788;8.824;2024-02-26T00:25:26;98546.34;;;5.85;74.47
74613;BME280;63119;51.788;8.824;2024-02-26T00:27:51;98545.91;;;5.79;74.91
74613;BME280;63119;51.788;8.824;2024-02-26T00:30:17;98535.41;;;5.79;74.95
74613;BME280;63119;51.788;8.824;2024-02-26T00:32:42;98535.19;;;5.82;74.99
74613;BME280;63119;51.788;8.824;2024-02-26T00:35:07;98535.41;;;5.79;75.34
74613;BME280;63119;51.788;8.824;2024-02-26T00:37:34;98535.00;;;5.72;75.46
74613;BME280;63119;51.788;8.824;2024-02-26T00:40:00;98540.16;;;5.74;75.54
74613;BME280;63119;51.788;8.824;2024-02-26T00:42:25;98532.78;;;5.79;74.86
74613;BME280;63119;51.788;8.824;2024-02-26T00:44:50;98538.97;;;5.78;75.25
74613;BME280;63119;51.788;8.824;2024-02-26T00:47:16;98531.31;;;5.75;75.41
74613;BME280;63119;51.788;8.824;2024-02-26T00:49:41;98525.25;;;5.74;75.19
74613;BME280;63119;51.788;8.824;2024-02-26T00:52:06;98515.31;;;5.67;75.13
74613;BME280;63119;51.788;8.824;2024-02-26T00:54:31;98523.97;;;5.43;76.02
74613;BME280;63119;51.788;8.824;2024-02-26T00:56:57;98518.06;;;5.53;75.92
74613;BME280;63119;51.788;8.824;2024-02-26T00:59:22;98511.44;;;5.60;75.77
74613;BME280;63119;51.788;8.824;2024-02-26T01:01:47;98513.25;;;5.59;75.35
74613;BME280;63119;51.788;8.824;2024-02-26T01:04:12;98502.53;;;5.62;75.05
74613;BME280;63119;51.788;8.824;2024-02-26T01:06:38;98501.47;;;5.65;75.03
74613;BME280;63119;51.788;8.824;2024-02-26T01:09:03;98499.75;;;5.76;74.77
74613;BME280;63119;51.788;8.824;2024-02-26T01:11:28;98499.72;;;5.89;74.05
74613;BME280;63119;51.788;8.824;2024-02-26T01:13:54;98497.78;;;6.03;72.90
74613;BME280;63119;51.788;8.824;2024-02-26T01:16:22;98495.56;;;6.21;71.79
74613;BME280;63119;51.788;8.824;2024-02-26T01:18:47;98487.94;;;6.29;71.18
74613;BME280;63119;51.788;8.824;2024-02-26T01:21:12;98484.16;;;6.33;70.70
74613;BME280;63119;51.788;8.824;2024-02-26T01:23:38;98484.78;;;6.37;70.65
74613;BME280;63119;51.788;8.824;2024-02-26T01:26:03;98482.16;;;6.48;70.06
74613;BME280;63119;51.788;8.824;2024-02-26T01:28:29;98474.41;;;6.46;70.36
74613;BME280;63119;51.788;8.824;2024-02-26T01:30:55;98468.94;;;6.49;69.93
74613;BME280;63119;51.788;8.824;2024-02-26T01:33:20;98455.44;;;6.54;69.78
74613;BME280;63119;51.788;8.824;2024-02-26T01:35:45;98465.47;;;6.60;69.32
74613;BME280;63119;51.788;8.824;2024-02-26T01:38:11;98469.91;;;6.59;69.05
74613;BME280;63119;51.788;8.824;2024-02-26T01:40:37;98465.63;;;6.70;68.76
74613;BME280;63119;51.788;8.824;2024-02-26T01:43:02;98465.06;;;6.77;68.42
74613;BME280;63119;51.788;8.824;2024-02-26T01:45:27;98467.53;;;6.79;68.62
74613;BME280;63119;51.788;8.824;2024-02-26T01:47:54;98463.25;;;6.78;68.31
74613;BME280;63119;51.788;8.824;2024-02-26T01:50:20;98455.13;;;6.81;67.92
74613;BME280;63119;51.788;8.824;2024-02-26T01:52:50;98453.22;;;6.83;67.99
74613;BME280;63119;51.788;8.824;2024-02-26T01:55:17;98447.25;;;6.92;67.86
74613;BME280;63119;51.788;8.824;2024-02-26T01:57:43;98454.44;;;6.90;68.25
74613;BME280;63119;51.788;8.824;2024-02-26T02:00:10;98463.38;;;6.87;67.89
74613;BME280;63119;51.788;8.824;2024-02-26T02:02:36;98451.06;;;6.88;67.71
74613;BME280;63119;51.788;8.824;2024-02-26T02:05:02;98444.63;;;6.92;67.25
74613;BME280;63119;51.788;8.824;2024-02-26T02:07:28;98451.31;;;6.96;67.10
74613;BME280;63119;51.788;8.824;2024-02-26T02:09:53;98460.16;;;6.95;67.23
74613;BME280;63119;51.788;8.824;2024-02-26T02:12:19;98458.97;;;6.99;67.26
74613;BME280;63119;51.788;8.824;2024-02-26T02:14:44;98455.13;;;6.92;67.29
74613;BME280;63119;51.788;8.824;2024-02-26T02:17:10;98462.78;;;6.95;67.08
74613;BME280;63119;51.788;8.824;2024-02-26T02:19:35;98460.41;;;6.92;67.35
74613;BME280;63119;51.788;8.824;2024-02-26T02:22:00;98463.72;;;6.94;67.10
74613;BME280;63119;51.788;8.824;2024-02-26T02:24:25;98461.72;;;6.97;67.11
74613;BME280;63119;51.788;8.824;2024-02-26T02:26:50;98459.56;;;6.91;67.48
74613;BME280;63119;51.788;8.824;2024-02-26T02:29:16;98464.72;;;6.93;67.11
74613;BME280;63119;51.788;8.824;2024-02-26T02:31:41;98475.00;;;6.96;66.77
74613;BME280;63119;51.788;8.824;2024-02-26T02:34:08;98463.50;;;6.97;66.60
74613;BME280;63119;51.788;8.824;2024-02-26T02:36:34;98472.47;;;6.94;66.79
74613;BME280;63119;51.788;8.824;2024-02-26T02:38:59;98473.31;;;6.95;66.88
74613;BME280;63119;51.788;8.824;2024-02-26T02:41:24;98476.41;;;7.00;67.27
74613;BME280;63119;51.788;8.824;2024-02-26T02:43:51;98478.09;;;7.01;66.83
74613;BME280;63119;51.788;8.824;2024-02-26T02:46:16;98479.88;;;7.00;66.82
74613;BME280;63119;51.788;8.824;2024-02-26T02:48:42;98482.75;;;6.97;67.17
74613;BME280;63119;51.788;8.824;2024-02-26T02:51:07;98481.81;;;6.98;67.03
74613;BME280;63119;51.788;8.824;2024-02-26T02:53:33;98482.75;;;6.86;67.29
74613;BME280;63119;51.788;8.824;2024-02-26T02:55:58;98473.16;;;6.96;67.37
74613;BME280;63119;51.788;8.824;2024-02-26T02:58:23;98475.47;;;7.01;66.90
74613;BME280;63119;51.788;8.824;2024-02-26T03:00:48;98469.00;;;6.94;67.28
74613;BME280;63119;51.788;8.824;2024-02-26T03:03:14;98477.72;;;6.94;67.55
74613;BME280;63119;51.788;8.824;2024-02-26T03:05:39;98478.34;;;6.87;67.68
74613;BME280;63119;51.788;8.824;2024-02-26T03:08:04;98481.44;;;6.92;67.43
74613;BME280;63119;51.788;8.824;2024-02-26T03:10:29;98478.34;;;6.98;67.35
74613;BME280;63119;51.788;8.824;2024-02-26T03:12:55;98482.97;;;6.83;67.84
74613;BME280;63119;51.788;8.824;2024-02-26T03:15:21;98477.84;;;6.93;67.33
74613;BME280;63119;51.788;8.824;2024-02-26T03:17:46;98474.72;;;6.88;67.63
74613;BME280;63119;51.788;8.824;2024-02-26T03:20:11;98476.19;;;6.92;67.81
74613;BME280;63119;51.788;8.824;2024-02-26T03:22:38;98472.59;;;6.93;67.41
74613;BME280;63119;51.788;8.824;2024-02-26T03:25:04;98484.16;;;6.90;67.64
74613;BME280;63119;51.788;8.824;2024-02-26T03:27:29;98478.44;;;6.96;67.69
74613;BME280;63119;51.788;8.824;2024-02-26T03:29:54;98473.31;;;6.84;68.03
74613;BME280;63119;51.788;8.824;2024-02-26T03:32:20;98485.59;;;6.83;68.04
74613;BME280;63119;51.788;8.824;2024-02-26T03:34:45;98466.97;;;6.86;68.04
74613;BME280;63119;51.788;8.824;2024-02-26T03:37:10;98482.38;;;6.80;68.16
74613;BME280;63119;51.788;8.824;2024-02-26T03:39:36;98471.38;;;6.86;67.74
74613;BME280;63119;51.788;8.824;2024-02-26T03:42:01;98476.75;;;6.84;67.38
74613;BME280;63119;51.788;8.824;2024-02-26T03:44:27;98474.53;;;7.02;67.54
74613;BME280;63119;51.788;8.824;2024-02-26T03:46:52;98482.97;;;6.94;67.66
74613;BME280;63119;51.788;8.824;2024-02-26T03:49:17;98487.66;;;7.02;67.36
74613;BME280;63119;51.788;8.824;2024-02-26T03:51:43;98487.31;;;6.95;68.06
74613;BME280;63119;51.788;8.824;2024-02-26T03:54:08;98489.09;;;6.95;67.83
74613;BME280;63119;51.788;8.824;2024-02-26T03:56:33;98488.38;;;6.93;67.96
74613;BME280;63119;51.788;8.824;2024-02-26T03:58:58;98487.16;;;6.97;67.97
74613;BME280;63119;51.788;8.824;2024-02-26T04:01:26;98489.78;;;6.97;67.30
74613;BME280;63119;51.788;8.824;2024-02-26T04:03:51;98489.78;;;6.97;68.40
74613;BME280;63119;51.788;8.824;2024-02-26T04:06:18;98494.59;;;6.92;67.81
74613;BME280;63119;51.788;8.824;2024-02-26T04:08:44;98495.56;;;7.02;67.26
74613;BME280;63119;51.788;8.824;2024-02-26T04:11:10;98503.44;;;7.02;67.66
74613;BME280;63119;51.788;8.824;2024-02-26T04:13:35;98505.56;;;6.97;67.60
74613;BME280;63119;51.788;8.824;2024-02-26T04:16:00;98499.22;;;6.99;67.52
74613;BME280;63119;51.788;8.824;2024-02-26T04:18:28;98497.72;;;7.08;67.26
74613;BME280;63119;51.788;8.824;2024-02-26T04:20:54;98501.28;;;7.07;66.89
74613;BME280;63119;51.788;8.824;2024-02-26T04:23:19;98505.47;;;7.09;66.83
74613;BME280;63119;51.788;8.824;2024-02-26T04:25:44;98494.47;;;7.15;66.84
74613;BME280;63119;51.788;8.824;2024-02-26T04:28:10;98499.88;;;7.14;67.03
74613;BME280;63119;51.788;8.824;2024-02-26T04:30:35;98506.53;;;7.18;66.75
74613;BME280;63119;51.788;8.824;2024-02-26T04:33:00;98496.41;;;7.13;66.95
74613;BME280;63119;51.788;8.824;2024-02-26T04:35:25;98498.88;;;7.15;67.11
74613;BME280;63119;51.788;8.824;2024-02-26T04:37:51;98498.66;;;7.18;66.47
74613;BME280;63119;51.788;8.824;2024-02-26T04:40:16;98513.97;;;7.24;66.53
74613;BME280;63119;51.788;8.824;2024-02-26T04:42:41;98510.25;;;7.27;66.15
74613;BME280;63119;51.788;8.824;2024-02-26T04:45:07;98505.47;;;7.43;65.97
74613;BME280;63119;51.788;8.824;2024-02-26T04:47:33;98504.16;;;7.37;66.15
74613;BME280;63119;51.788;8.824;2024-02-26T04:49:58;98515.41;;;7.39;66.47
74613;BME280;63119;51.788;8.824;2024-02-26T04:52:25;98513.03;;;7.47;65.33
74613;BME280;63119;51.788;8.824;2024-02-26T04:54:50;98508.69;;;7.57;65.21
74613;BME280;63119;51.788;8.824;2024-02-26T04:57:15;98514.56;;;7.50;65.36
74613;BME280;63119;51.788;8.824;2024-02-26T04:59:43;98518.50;;;7.55;65.23
74613;BME280;63119;51.788;8.824;2024-02-26T05:02:09;98515.75;;;7.46;65.28
74613;BME280;63119;51.788;8.824;2024-02-26T05:04:34;98531.78;;;7.54;64.71
74613;BME280;63119;51.788;8.824;2024-02-26T05:07:00;98534.78;;;7.49;64.84
74613;BME280;63119;51.788;8.824;2024-02-26T05:09:25;98536.94;;;7.44;65.40
74613;BME280;63119;51.788;8.824;2024-02-26T05:11:50;98538.59;;;7.45;65.47
74613;BME280;63119;51.788;8.824;2024-02-26T05:14:15;98533.34;;;7.45;65.02
74613;BME280;63119;51.788;8.824;2024-02-26T05:16:41;98533.34;;;7.45;65.32
74613;BME280;63119;51.788;8.824;2024-02-26T05:19:06;98536.22;;;7.53;65.03
74613;BME280;63119;51.788;8.824;2024-02-26T05:21:31;98536.22;;;7.53;64.73
74613;BME280;63119;51.788;8.824;2024-02-26T05:23:56;98539.91;;;7.40;64.78
74613;BME280;63119;51.788;8.824;2024-02-26T05:26:22;98532.38;;;7.46;64.54
74613;BME280;63119;51.788;8.824;2024-02-26T05:28:48;98537.63;;;7.57;64.57
74613;BME280;63119;51.788;8.824;2024-02-26T05:31:14;98535.63;;;7.50;64.94
74613;BME280;63119;51.788;8.824;2024-02-26T05:33:39;98539.34;;;7.47;64.93
74613;BME280;63119;51.788;8.824;2024-02-26T05:36:05;98537.53;;;7.59;63.98
74613;BME280;63119;51.788;8.824;2024-02-26T05:38:30;98544.22;;;7.52;64.54
74613;BME280;63119;51.788;8.824;2024-02-26T05:40:57;98517.31;;;7.48;64.83
74613;BME280;63119;51.788;8.824;2024-02-26T05:43:22;98532.00;;;7.51;64.81
74613;BME280;63119;51.788;8.824;2024-02-26T05:45:47;98535.97;;;7.56;64.06
74613;BME280;63119;51.788;8.824;2024-02-26T05:48:12;98531.44;;;7.47;64.45
74613;BME280;63119;51.788;8.824;2024-02-26T05:50:38;98532.63;;;7.54;64.56
74613;BME280;63119;51.788;8.824;2024-02-26T05:53:03;98521.88;;;7.46;64.87
74613;BME280;63119;51.788;8.824;2024-02-26T05:55:28;98515.16;;;7.53;64.76
74613;BME280;63119;51.788;8.824;2024-02-26T05:57:54;98525.47;;;7.56;64.13
74613;BME280;63119;51.788;8.824;2024-02-26T06:00:19;98534.06;;;7.58;64.26
74613;BME280;63119;51.788;8.824;2024-02-26T06:02:44;98522.31;;;7.51;65.07
74613;BME280;63119;51.788;8.824;2024-02-26T06:05:10;98526.41;;;7.44;64.66
74613;BME280;63119;51.788;8.824;2024-02-26T06:07:35;98531.78;;;7.32;65.22
74613;BME280;63119;51.788;8.824;2024-02-26T06:10:01;98534.41;;;7.43;65.15
74613;BME280;63119;51.788;8.824;2024-02-26T06:12:27;98537.78;;;7.23;65.68
74613;BME280;63119;51.788;8.824;2024-02-26T06:14:54;98546.50;;;7.34;65.59
74613;BME280;63119;51.788;8.824;2024-02-26T06:17:19;98546.03;;;7.29;65.27
74613;BME280;63119;51.788;8.824;2024-02-26T06:19:44;98544.09;;;7.31;65.15
74613;BME280;63119;51.788;8.824;2024-02-26T06:22:09;98554.41;;;7.34;64.68
74613;BME280;63119;51.788;8.824;2024-02-26T06:24:35;98555.34;;;7.33;64.69
74613;BME280;63119;51.788;8.824;2024-02-26T06:27:00;98547.44;;;7.22;64.60
74613;BME280;63119;51.788;8.824;2024-02-26T06:29:25;98549.13;;;7.23;65.19
74613;BME280;63119;51.788;8.824;2024-02-26T06:31:51;98566.81;;;7.21;65.62
74613;BME280;63119;51.788;8.824;2024-02-26T06:34:16;98564.91;;;7.23;65.64
74613;BME280;63119;51.788;8.824;2024-02-26T06:36:41;98563.00;;;7.25;65.51
74613;BME280;63119;51.788;8.824;2024-02-26T06:39:06;98572.91;;;7.22;65.18
74613;BME280;63119;51.788;8.824;2024-02-26T06:41:33;98583.34;;;7.34;65.14
74613;BME280;63119;51.788;8.824;2024-02-26T06:43:58;98582.63;;;7.43;64.97
74613;BME280;63119;51.788;8.824;2024-02-26T06:46:23;98585.03;;;7.35;65.04
74613;BME280;63119;51.788;8.824;2024-02-26T06:48:49;98574.50;;;7.46;64.80
74613;BME280;63119;51.788;8.824;2024-02-26T06:51:14;98570.88;;;7.36;65.41
74613;BME280;63119;51.788;8.824;2024-02-26T06:53:40;98573.28;;;7.39;65.49
74613;BME280;63119;51.788;8.824;2024-02-26T06:56:05;98581.41;;;7.36;64.71
74613;BME280;63119;51.788;8.824;2024-02-26T06:58:30;98580.00;;;7.43;64.85
74613;BME280;63119;51.788;8.824;2024-02-26T07:00:55;98590.16;;;7.37;65.15
74613;BME280;63119;51.788;8.824;2024-02-26T07:03:21;98589.91;;;7.40;65.31
74613;BME280;63119;51.788;8.824;2024-02-26T07:05:48;98582.03;;;7.40;65.31
74613;BME280;63119;51.788;8.824;2024-02-26T07:08:13;98583.38;;;7.56;65.31
74613;BME280;63119;51.788;8.824;2024-02-26T07:10:38;98590.75;;;7.51;65.15
74613;BME280;63119;51.788;8.824;2024-02-26T07:13:03;98599.41;;;7.53;64.80
74613;BME280;63119;51.788;8.824;2024-02-26T07:15:29;98595.88;;;7.42;65.25
74613;BME280;63119;51.788;8.824;2024-02-26T07:17:54;98608.84;;;7.56;65.10
74613;BME280;63119;51.788;8.824;2024-02-26T07:20:19;98607.25;;;7.42;65.12
74613;BME280;63119;51.788;8.824;2024-02-26T07:22:44;98612.41;;;7.55;64.47
74613;BME280;63119;51.788;8.824;2024-02-26T07:25:10;98607.88;;;7.57;65.82
74613;BME280;63119;51.788;8.824;2024-02-26T07:27:38;98613.25;;;7.55;65.15
74613;BME280;63119;51.788;8.824;2024-02-26T07:30:04;98609.22;;;7.62;65.22
74613;BME280;63119;51.788;8.824;2024-02-26T07:32:30;98608.72;;;7.68;64.87
74613;BME280;63119;51.788;8.824;2024-02-26T07:34:55;98612.53;;;7.76;64.66
74613;BME280;63119;51.788;8.824;2024-02-26T07:37:20;98626.78;;;7.62;65.37
74613;BME280;63119;51.788;8.824;2024-02-26T07:39:45;98621.88;;;7.80;64.37
74613;BME280;63119;51.788;8.824;2024-02-26T07:42:11;98631.94;;;7.86;64.44
74613;BME280;63119;51.788;8.824;2024-02-26T07:44:36;98622.25;;;7.86;64.49
74613;BME280;63119;51.788;8.824;2024-02-26T07:47:01;98618.66;;;7.76;64.75
74613;BME280;63119;51.788;8.824;2024-02-26T07:49:28;98637.69;;;7.80;64.62
74613;BME280;63119;51.788;8.824;2024-02-26T07:51:53;98628.59;;;7.84;65.18
74613;BME280;63119;51.788;8.824;2024-02-26T07:54:18;98629.53;;;7.83;65.21
74613;BME280;63119;51.788;8.824;2024-02-26T07:56:44;98631.94;;;7.86;65.31
74613;BME280;63119;51.788;8.824;2024-02-26T07:59:09;98640.56;;;7.65;65.31
74613;BME280;63119;51.788;8.824;2024-02-26T08:01:35;98638.53;;;7.80;64.37
74613;BME280;63119;51.788;8.824;2024-02-26T08:04:00;98657.53;;;7.72;64.83
74613;BME280;63119;51.788;8.824;2024-02-26T08:06:25;98653.97;;;7.62;65.32
74613;BME280;63119;51.788;8.824;2024-02-26T08:08:50;98662.66;;;7.63;65.61
74613;BME280;63119;51.788;8.824;2024-02-26T08:11:16;98671.03;;;7.46;66.22
74613;BME280;63119;51.788;8.824;2024-02-26T08:13:41;98681.34;;;7.60;66.44
74613;BME280;63119;51.788;8.824;2024-02-26T08:16:07;98683.94;;;7.38;66.86
74613;BME280;63119;51.788;8.824;2024-02-26T08:18:32;98686.06;;;7.33;66.12
74613;BME280;63119;51.788;8.824;2024-02-26T08:20:57;98682.63;;;7.43;66.04
74613;BME280;63119;51.788;8.824;2024-02-26T08:23:22;98684.81;;;7.60;65.13
74613;BME280;63119;51.788;8.824;2024-02-26T08:25:48;98690.31;;;7.57;65.72
74613;BME280;63119;51.788;8.824;2024-02-26T08:28:13;98689.13;;;7.72;65.29
74613;BME280;63119;51.788;8.824;2024-02-26T08:30:39;98690.91;;;7.72;65.13
74613;BME280;63119;51.788;8.824;2024-02-26T08:33:04;98686.53;;;7.84;65.17
74613;BME280;63119;51.788;8.824;2024-02-26T08:35:29;98694.91;;;7.78;65.09
74613;BME280;63119;51.788;8.824;2024-02-26T08:37:55;98688.41;;;7.82;65.66
74613;BME280;63119;51.788;8.824;2024-02-26T08:40:21;98695.88;;;7.99;65.23
74613;BME280;63119;51.788;8.824;2024-02-26T08:42:47;98699.13;;;8.02;65.58
74613;BME280;63119;51.788;8.824;2024-02-26T08:45:12;98707.00;;;7.91;65.42
74613;BME280;63119;51.788;8.824;2024-02-26T08:47:37;98696.59;;;8.01;65.30
74613;BME280;63119;51.788;8.824;2024-02-26T08:50:04;98694.91;;;8.11;64.71
74613;BME280;63119;51.788;8.824;2024-02-26T08:52:29;98699.22;;;7.90;65.11
74613;BME280;63119;51.788;8.824;2024-02-26T08:54:54;98698.03;;;8.16;64.79
74613;BME280;63119;51.788;8.824;2024-02-26T08:57:19;98696.84;;;8.31;64.06
74613;BME280;63119;51.788;8.824;2024-02-26T08:59:45;98693.94;;;8.56;63.30
74613;BME280;63119;51.788;8.824;2024-02-26T09:02:10;98698.38;;;8.56;63.24
74613;BME280;63119;51.788;8.824;2024-02-26T09:04:35;98697.88;;;8.62;62.83
74613;BME280;63119;51.788;8.824;2024-02-26T09:07:01;98695.19;;;8.84;63.95
74613;BME280;63119;51.788;8.824;2024-02-26T09:09:27;98699.72;;;8.93;61.20
74613;BME280;63119;51.788;8.824;2024-02-26T09:11:52;98701.75;;;9.21;61.13
74613;BME280;63119;51.788;8.824;2024-02-26T09:14:18;98704.28;;;9.23;61.48
74613;BME280;63119;51.788;8.824;2024-02-26T09:16:43;98701.13;;;9.29;61.13
74613;BME280;63119;51.788;8.824;2024-02-26T09:19:08;98693.06;;;9.30;60.32
74613;BME280;63119;51.788;8.824;2024-02-26T09:21:34;98695.25;;;9.67;59.94
74613;BME280;63119;51.788;8.824;2024-02-26T09:23:59;98694.44;;;9.66;60.20
74613;BME280;63119;51.788;8.824;2024-02-26T09:26:24;98694.63;;;9.74;60.56
74613;BME280;63119;51.788;8.824;2024-02-26T09:28:49;98696.94;;;9.68;59.94
74613;BME280;63119;51.788;8.824;2024-02-26T09:31:15;98699.84;;;9.65;60.06
74613;BME280;63119;51.788;8.824;2024-02-26T09:33:42;98706.63;;;10.09;59.54
74613;BME280;63119;51.788;8.824;2024-02-26T09:36:08;98705.50;;;10.32;59.47
74613;BME280;63119;51.788;8.824;2024-02-26T09:38:35;98708.84;;;10.34;59.08
74613;BME280;63119;51.788;8.824;2024-02-26T09:41:04;98710.94;;;10.10;58.31
74613;BME280;63119;51.788;8.824;2024-02-26T09:43:34;98696.66;;;10.43;58.60
74613;BME280;63119;51.788;8.824;2024-02-26T09:46:00;98706.31;;;10.23;57.45
74613;BME280;63119;51.788;8.824;2024-02-26T09:48:25;98711.69;;;10.21;57.70
74613;BME280;63119;51.788;8.824;2024-02-26T09:50:51;98712.22;;;10.36;57.63
74613;BME280;63119;51.788;8.824;2024-02-26T09:53:18;98714.13;;;10.34;58.21
74613;BME280;63119;51.788;8.824;2024-02-26T09:55:43;98712.19;;;10.06;58.24
74613;BME280;63119;51.788;8.824;2024-02-26T09:58:09;98726.22;;;10.27;57.94
74613;BME280;63119;51.788;8.824;2024-02-26T10:00:37;98714.66;;;10.28;58.33
74613;BME280;63119;51.788;8.824;2024-02-26T10:03:05;98728.34;;;10.73;58.15
74613;BME280;63119;51.788;8.824;2024-02-26T10:05:32;98725.38;;;10.66;58.30
74613;BME280;63119;51.788;8.824;2024-02-26T10:07:59;98726.97;;;10.88;58.50
74613;BME280;63119;51.788;8.824;2024-02-26T10:10:28;98729.88;;;10.75;56.87
74613;BME280;63119;51.788;8.824;2024-02-26T10:12:53;98730.78;;;10.65;56.62
74613;BME280;63119;51.788;8.824;2024-02-26T10:15:19;98733.34;;;10.76;57.30
74613;BME280;63119;51.788;8.824;2024-02-26T10:17:44;98730.16;;;10.82;57.28
74613;BME280;63119;51.788;8.824;2024-02-26T10:20:17;98740.03;;;10.80;56.46
74613;BME280;63119;51.788;8.824;2024-02-26T10:22:43;98740.81;;;11.30;56.39
74613;BME280;63119;51.788;8.824;2024-02-26T10:25:09;98738.25;;;11.19;55.68
74613;BME280;63119;51.788;8.824;2024-02-26T10:27:35;98737.88;;;11.33;55.96
74613;BME280;63119;51.788;8.824;2024-02-26T10:30:22;98731.75;;;11.32;55.76
74613;BME280;63119;51.788;8.824;2024-02-26T10:32:51;98742.38;;;10.73;56.54
74613;BME280;63119;51.788;8.824;2024-02-26T10:35:17;98743.13;;;10.45;57.83
74613;BME280;63119;51.788;8.824;2024-02-26T10:37:43;98748.59;;;10.53;58.27
74613;BME280;63119;51.788;8.824;2024-02-26T10:40:13;98759.22;;;10.32;58.25
74613;BME280;63119;51.788;8.824;2024-02-26T10:42:38;98767.94;;;10.23;59.34
74613;BME280;63119;51.788;8.824;2024-02-26T10:45:05;98764.41;;;10.13;59.28
74613;BME280;63119;51.788;8.824;2024-02-26T10:47:31;98774.69;;;10.37;59.49
74613;BME280;63119;51.788;8.824;2024-02-26T10:49:58;98775.91;;;10.12;60.96
74613;BME280;63119;51.788;8.824;2024-02-26T10:52:24;98771.47;;;10.13;60.60
74613;BME280;63119;51.788;8.824;2024-02-26T10:54:53;98774.84;;;10.15;60.76
74613;BME280;63119;51.788;8.824;2024-02-26T10:57:19;98777.94;;;10.50;60.41
74613;BME280;63119;51.788;8.824;2024-02-26T10:59:46;98769.91;;;10.61;59.35
74613;BME280;63119;51.788;8.824;2024-02-26T11:02:13;98780.22;;;10.34;60.42
74613;BME280;63119;51.788;8.824;2024-02-26T11:04:39;98774.13;;;10.33;60.84
74613;BME280;63119;51.788;8.824;2024-02-26T11:07:04;98782.06;;;10.43;60.26
74613;BME280;63119;51.788;8.824;2024-02-26T11:09:31;98780.50;;;10.31;60.08
74613;BME280;63119;51.788;8.824;2024-02-26T11:11:58;98783.06;;;10.21;60.29
74613;BME280;63119;51.788;8.824;2024-02-26T11:14:24;98785.47;;;10.24;60.84
74613;BME280;63119;51.788;8.824;2024-02-26T11:16:51;98774.09;;;10.13;61.97
74613;BME280;63119;51.788;8.824;2024-02-26T11:19:17;98782.75;;;10.35;61.67
74613;BME280;63119;51.788;8.824;2024-02-26T11:21:43;98775.59;;;10.06;61.96
74613;BME280;63119;51.788;8.824;2024-02-26T11:24:11;98784.06;;;10.00;62.15
74613;BME280;63119;51.788;8.824;2024-02-26T11:26:42;98777.94;;;10.20;62.46
74613;BME280;63119;51.788;8.824;2024-02-26T11:29:11;98788.44;;;9.89;62.42
74613;BME280;63119;51.788;8.824;2024-02-26T11:31:38;98781.28;;;10.22;62.24
74613;BME280;63119;51.788;8.824;2024-02-26T11:34:07;98779.78;;;10.08;62.31
74613;BME280;63119;51.788;8.824;2024-02-26T11:36:32;98780.75;;;10.07;62.11
74613;BME280;63119;51.788;8.824;2024-02-26T11:38:58;98776.03;;;10.11;62.66
74613;BME280;63119;51.788;8.824;2024-02-26T11:41:23;98786.22;;;9.95;63.74
74613;BME280;63119;51.788;8.824;2024-02-26T11:43:52;98780.91;;;10.26;63.95
74613;BME280;63119;51.788;8.824;2024-02-26T11:46:29;98779.63;;;10.21;62.70
74613;BME280;63119;51.788;8.824;2024-02-26T11:51:52;98787.03;;;10.27;62.52
74613;BME280;63119;51.788;8.824;2024-02-26T11:54:55;98784.34;;;10.48;64.05
74613;BME280;63119;51.788;8.824;2024-02-26T11:57:38;98786.31;;;10.25;64.14
74613;BME280;63119;51.788;8.824;2024-02-26T12:05:06;98787.31;;;10.13;65.25
74613;BME280;63119;51.788;8.824;2024-02-26T12:07:34;98788.50;;;9.99;66.21
74613;BME280;63119;51.788;8.824;2024-02-26T12:10:20;98795.06;;;10.05;64.75
74613;BME280;63119;51.788;8.824;2024-02-26T12:12:47;98801.03;;;10.18;65.10
74613;BME280;63119;51.788;8.824;2024-02-26T12:15:14;98804.78;;;10.04;65.26
74613;BME280;63119;51.788;8.824;2024-02-26T12:17:40;98806.75;;;10.02;66.10
74613;BME280;63119;51.788;8.824;2024-02-26T12:20:13;98812.22;;;9.89;65.65
74613;BME280;63119;51.788;8.824;2024-02-26T12:22:45;98805.75;;;10.03;66.00
74613;BME280;63119;51.788;8.824;2024-02-26T12:25:10;98803.25;;;10.02;65.87
74613;BME280;63119;51.788;8.824;2024-02-26T12:27:36;98812.09;;;10.12;66.25
74613;BME280;63119;51.788;8.824;2024-02-26T12:30:03;98802.31;;;10.03;65.85
74613;BME280;63119;51.788;8.824;2024-02-26T12:32:28;98810.09;;;10.04;66.11
74613;BME280;63119;51.788;8.824;2024-02-26T12:34:54;98810.66;;;10.08;65.83
74613;BME280;63119;51.788;8.824;2024-02-26T12:37:19;98809.13;;;10.05;66.04
74613;BME280;63119;51.788;8.824;2024-02-26T12:39:44;98812.13;;;10.01;66.86
74613;BME280;63119;51.788;8.824;2024-02-26T12:42:11;98817.50;;;9.89;66.83
74613;BME280;63119;51.788;8.824;2024-02-26T12:44:37;98811.78;;;10.05;66.42
74613;BME280;63119;51.788;8.824;2024-02-26T12:47:03;98809.81;;;10.07;66.97
74613;BME280;63119;51.788;8.824;2024-02-26T12:49:29;98818.13;;;9.82;65.80
74613;BME280;63119;51.788;8.824;2024-02-26T12:51:54;98820.31;;;9.98;65.71
74613;BME280;63119;51.788;8.824;2024-02-26T12:54:27;98820.31;;;9.98;65.43
74613;BME280;63119;51.788;8.824;2024-02-26T12:56:52;98822.28;;;9.96;65.51
74613;BME280;63119;51.788;8.824;2024-02-26T12:59:18;98833.59;;;9.86;64.67
74613;BME280;63119;51.788;8.824;2024-02-26T13:01:43;98832.09;;;9.73;65.28
74613;BME280;63119;51.788;8.824;2024-02-26T13:04:09;98829.41;;;9.84;65.25
74613;BME280;63119;51.788;8.824;2024-02-26T13:06:35;98841.78;;;9.83;65.44
74613;BME280;63119;51.788;8.824;2024-02-26T13:09:00;98844.09;;;9.98;65.92